Time;durP1;ratioP1;P1;durP2;ratioP2;P2;SDS_P1;SDS_P2;PMS_P1;PMS_P2;Temp;Humidity;BMP_temperature;BMP_pressure;BME280_temperature;BME280_humidity;BME280_pressure;Samples;Min_cycle;Max_cycle;Signal;HPM_P1;HPM_P2
2021/09/09 00:01:37;;;;;;;0.60;0.60;;;11.30;99.90;;;;;;5032927;28;20297;-73
2021/09/09 00:04:03;;;;;;;0.80;0.80;;;11.20;99.90;;;;;;5049718;28;20555;-73
2021/09/09 00:06:29;;;;;;;0.60;0.60;;;11.30;99.90;;;;;;5033554;28;20251;-73
2021/09/09 00:08:55;;;;;;;0.70;0.70;;;11.30;99.90;;;;;;5052290;28;20229;-73
2021/09/09 00:11:21;;;;;;;0.50;0.50;;;11.30;99.90;;;;;;5050686;28;20214;-73
2021/09/09 00:13:46;;;;;;;0.63;0.63;;;11.30;99.90;;;;;;5052146;28;20675;-73
2021/09/09 00:16:12;;;;;;;1.75;1.20;;;11.40;99.90;;;;;;5032659;28;20213;-73
2021/09/09 00:18:38;;;;;;;0.80;0.80;;;11.70;99.90;;;;;;5032792;28;20219;-73
2021/09/09 00:21:04;;;;;;;1.00;0.82;;;11.80;99.90;;;;;;5032522;28;20304;-74
2021/09/09 00:23:30;;;;;;;0.88;0.70;;;11.70;99.90;;;;;;5051396;28;20595;-73
2021/09/09 00:25:56;;;;;;;0.57;0.57;;;11.70;99.90;;;;;;5033800;28;20688;-73
2021/09/09 00:28:22;;;;;;;0.90;0.90;;;11.80;99.90;;;;;;5033884;28;20228;-73
2021/09/09 00:30:51;;;;;;;0.95;0.95;;;11.80;99.90;;;;;;5050593;28;20284;-73
2021/09/09 00:33:18;;;;;;;0.70;0.70;;;11.90;99.90;;;;;;5033993;28;20206;-73
2021/09/09 00:35:43;;;;;;;0.90;0.90;;;12.00;99.90;;;;;;5051629;28;20255;-73
2021/09/09 00:38:09;;;;;;;1.23;1.15;;;12.00;99.90;;;;;;5051540;28;20193;-73
2021/09/09 00:40:35;;;;;;;1.23;1.13;;;12.10;99.90;;;;;;5050186;28;20209;-73
2021/09/09 00:43:01;;;;;;;1.58;1.23;;;12.10;99.90;;;;;;5033854;28;20201;-73
2021/09/09 00:45:27;;;;;;;1.38;0.90;;;12.00;99.90;;;;;;5051239;28;20273;-73
2021/09/09 00:47:53;;;;;;;2.05;1.50;;;11.90;99.90;;;;;;5032641;28;20230;-73
2021/09/09 00:50:18;;;;;;;1.05;1.00;;;11.80;99.90;;;;;;5051420;28;20240;-73
2021/09/09 00:52:47;;;;;;;0.80;0.80;;;11.60;99.90;;;;;;5051357;28;20204;-73
2021/09/09 00:55:13;;;;;;;0.65;0.65;;;11.50;99.90;;;;;;5051489;28;20617;-73
2021/09/09 00:57:39;;;;;;;3.63;1.15;;;11.50;99.90;;;;;;5051625;28;20209;-73
2021/09/09 01:00:07;;;;;;;0.70;0.70;;;11.40;99.90;;;;;;5049989;28;20213;-73
2021/09/09 01:02:33;;;;;;;0.70;0.70;;;11.40;99.90;;;;;;5048377;28;20201;-73
2021/09/09 01:04:58;;;;;;;1.42;1.33;;;11.30;99.90;;;;;;5050008;28;20296;-73
2021/09/09 01:07:28;;;;;;;1.25;1.15;;;11.30;99.90;;;;;;5049785;28;20296;-73
2021/09/09 01:09:54;;;;;;;4.20;1.45;;;11.30;99.90;;;;;;5051206;28;20211;-73
2021/09/09 01:12:20;;;;;;;1.35;1.25;;;11.30;99.90;;;;;;5051062;28;20702;-73
2021/09/09 01:14:46;;;;;;;0.90;0.90;;;11.40;99.90;;;;;;5051267;28;20209;-73
2021/09/09 01:17:11;;;;;;;0.70;0.70;;;11.40;99.90;;;;;;5050009;28;20232;-73
2021/09/09 01:19:37;;;;;;;1.33;1.25;;;11.50;99.90;;;;;;5049540;28;20205;-73
2021/09/09 01:22:04;;;;;;;1.45;1.35;;;11.60;99.90;;;;;;5051390;28;20318;-73
2021/09/09 01:24:30;;;;;;;0.90;0.90;;;11.70;99.90;;;;;;5031933;28;20206;-73
2021/09/09 01:26:58;;;;;;;1.05;0.95;;;11.70;99.90;;;;;;5049719;28;20566;-73
2021/09/09 01:29:30;;;;;;;0.90;0.90;;;11.80;99.90;;;;;;5049798;28;20213;-72
2021/09/09 01:31:56;;;;;;;0.80;0.80;;;11.90;99.90;;;;;;5051031;28;20208;-73
2021/09/09 01:34:23;;;;;;;1.05;1.05;;;12.00;99.90;;;;;;5050986;28;20626;-73
2021/09/09 01:36:49;;;;;;;0.85;0.85;;;12.10;99.90;;;;;;5049805;28;20233;-73
2021/09/09 01:39:15;;;;;;;0.70;0.70;;;12.20;99.90;;;;;;5029893;28;20257;-73
2021/09/09 01:41:41;;;;;;;7.30;1.05;;;12.30;99.90;;;;;;5028640;28;20198;-72
2021/09/09 01:44:07;;;;;;;0.88;0.88;;;12.30;99.90;;;;;;5031515;28;20206;-73
2021/09/09 01:46:33;;;;;;;1.00;1.00;;;12.50;99.90;;;;;;5031017;28;20214;-73
2021/09/09 01:49:00;;;;;;;1.27;1.20;;;12.60;99.90;;;;;;5031499;28;20209;-73
2021/09/09 01:51:26;;;;;;;1.98;1.88;;;12.70;99.90;;;;;;5031136;28;20614;-74
2021/09/09 01:53:53;;;;;;;1.70;1.58;;;12.80;99.90;;;;;;5032081;28;20288;-74
2021/09/09 01:56:20;;;;;;;0.90;0.90;;;13.00;99.90;;;;;;5033289;28;20701;-74
2021/09/09 01:58:45;;;;;;;0.55;0.55;;;13.00;99.90;;;;;;5034608;28;20209;-75
2021/09/09 02:01:11;;;;;;;0.80;0.80;;;13.00;99.90;;;;;;5030929;28;20202;-73
2021/09/09 02:03:37;;;;;;;3.40;1.60;;;13.00;99.90;;;;;;5032737;28;20225;-74
2021/09/09 02:06:03;;;;;;;1.35;1.25;;;13.10;99.90;;;;;;5028447;28;20207;-74
2021/09/09 02:08:29;;;;;;;0.68;0.68;;;13.00;99.90;;;;;;5026147;28;20285;-74
2021/09/09 02:10:55;;;;;;;2.25;1.33;;;13.10;99.90;;;;;;5034226;28;20198;-74
2021/09/09 02:13:21;;;;;;;0.77;0.77;;;13.10;99.90;;;;;;5032727;28;20304;-74
2021/09/09 02:15:46;;;;;;;0.70;0.70;;;13.10;99.90;;;;;;5032927;28;20285;-74
2021/09/09 02:18:12;;;;;;;0.90;0.90;;;13.10;99.90;;;;;;5032823;28;20610;-74
2021/09/09 02:20:38;;;;;;;2.00;1.40;;;13.10;99.90;;;;;;5034037;28;20213;-74
2021/09/09 02:23:04;;;;;;;1.10;1.00;;;13.20;99.90;;;;;;5032752;28;20202;-74
2021/09/09 02:25:30;;;;;;;0.73;0.73;;;13.20;99.90;;;;;;5033935;28;20260;-73
2021/09/09 02:27:56;;;;;;;0.75;0.75;;;13.20;99.90;;;;;;5032780;28;20709;-74
2021/09/09 02:30:22;;;;;;;4.90;1.25;;;13.30;99.90;;;;;;5032488;28;20201;-73
2021/09/09 02:32:48;;;;;;;0.90;0.85;;;13.30;99.90;;;;;;5034084;28;20212;-74
2021/09/09 02:35:13;;;;;;;5.50;1.30;;;13.40;99.90;;;;;;5034481;28;20233;-73
2021/09/09 02:37:41;;;;;;;1.98;1.10;;;13.40;99.90;;;;;;5033580;28;20264;-73
2021/09/09 02:40:08;;;;;;;0.90;0.90;;;13.50;99.90;;;;;;5048806;28;20244;-74
2021/09/09 02:42:34;;;;;;;1.23;1.13;;;13.50;99.90;;;;;;5052173;28;20237;-74
2021/09/09 02:45:00;;;;;;;1.55;1.35;;;13.50;99.90;;;;;;5035601;28;20241;-74
2021/09/09 02:47:25;;;;;;;0.80;0.80;;;13.60;99.90;;;;;;5052158;28;20308;-74
2021/09/09 02:49:52;;;;;;;1.23;1.13;;;13.60;99.90;;;;;;5053542;28;20565;-74
2021/09/09 02:52:18;;;;;;;0.60;0.60;;;13.60;99.90;;;;;;5052107;28;20197;-74
2021/09/09 02:54:43;;;;;;;0.50;0.50;;;13.60;99.90;;;;;;5053113;28;20208;-74
2021/09/09 02:57:09;;;;;;;0.73;0.73;;;13.60;99.90;;;;;;5035160;28;20211;-74
2021/09/09 02:59:35;;;;;;;1.25;1.13;;;13.60;99.90;;;;;;5031873;28;20202;-75
2021/09/09 03:02:03;;;;;;;1.30;1.10;;;13.70;99.90;;;;;;5048839;28;20201;-74
2021/09/09 03:04:29;;;;;;;1.05;0.98;;;13.60;99.90;;;;;;5051361;28;20205;-74
2021/09/09 03:06:54;;;;;;;0.75;0.75;;;13.60;99.90;;;;;;5050945;28;20263;-74
2021/09/09 03:09:20;;;;;;;1.38;1.27;;;13.70;99.90;;;;;;5053145;28;20276;-73
2021/09/09 03:11:46;;;;;;;1.00;0.95;;;13.70;99.90;;;;;;5035066;28;20206;-74
2021/09/09 03:14:12;;;;;;;1.25;1.15;;;13.70;99.90;;;;;;5051894;28;20277;-74
2021/09/09 03:16:37;;;;;;;0.70;0.70;;;13.70;99.90;;;;;;5051493;28;20288;-74
2021/09/09 03:19:03;;;;;;;1.73;1.63;;;13.80;99.90;;;;;;5068351;28;20209;-74
2021/09/09 03:21:29;;;;;;;1.58;1.48;;;13.80;99.90;;;;;;5052937;28;20205;-74
2021/09/09 03:23:55;;;;;;;1.70;1.50;;;13.80;99.90;;;;;;5052819;28;20197;-73
2021/09/09 03:26:20;;;;;;;1.08;0.98;;;13.80;99.90;;;;;;5053097;28;20262;-73
2021/09/09 03:28:46;;;;;;;0.82;0.82;;;13.80;99.90;;;;;;5052989;28;20197;-74
2021/09/09 03:31:12;;;;;;;1.05;1.05;;;13.90;99.90;;;;;;5033471;28;20197;-74
2021/09/09 03:33:38;;;;;;;1.85;1.75;;;13.80;99.90;;;;;;5052513;28;21288;-74
2021/09/09 03:36:04;;;;;;;1.02;1.02;;;13.80;99.90;;;;;;5052899;28;20206;-74
2021/09/09 03:38:30;;;;;;;0.80;0.80;;;13.80;99.90;;;;;;5034232;28;20374;-74
2021/09/09 03:40:56;;;;;;;0.80;0.80;;;13.80;99.90;;;;;;5052608;28;20299;-74
2021/09/09 03:43:21;;;;;;;1.05;0.98;;;13.80;99.90;;;;;;5033143;28;20205;-73
2021/09/09 03:45:47;;;;;;;1.08;1.00;;;13.80;99.90;;;;;;5034297;28;20209;-74
2021/09/09 03:48:13;;;;;;;0.98;0.98;;;13.80;99.90;;;;;;5051101;28;20201;-73
2021/09/09 03:50:39;;;;;;;1.77;1.65;;;13.90;99.90;;;;;;5033830;28;20250;-74
2021/09/09 03:53:05;;;;;;;0.93;0.93;;;13.80;99.90;;;;;;5052426;28;20237;-74
2021/09/09 03:55:31;;;;;;;2.47;1.83;;;13.90;99.90;;;;;;5051842;28;20197;-75
2021/09/09 03:57:57;;;;;;;1.35;1.25;;;13.80;99.90;;;;;;5034583;28;20612;-74
2021/09/09 04:00:22;;;;;;;2.05;1.33;;;13.90;99.90;;;;;;5051990;28;20208;-74
2021/09/09 04:02:48;;;;;;;3.25;2.25;;;13.80;99.90;;;;;;5050721;28;20201;-74
2021/09/09 04:05:14;;;;;;;0.90;0.90;;;13.80;99.90;;;;;;5032759;28;20209;-74
2021/09/09 04:07:40;;;;;;;1.63;1.52;;;13.80;99.90;;;;;;5032710;28;20209;-73
2021/09/09 04:10:06;;;;;;;1.92;1.30;;;13.80;99.90;;;;;;5052013;28;20194;-73
2021/09/09 04:12:32;;;;;;;4.93;1.00;;;13.90;99.90;;;;;;5051979;28;20719;-73
2021/09/09 04:14:58;;;;;;;2.17;1.67;;;13.80;99.90;;;;;;5052267;28;20284;-73
2021/09/09 04:17:24;;;;;;;2.78;1.40;;;13.90;99.90;;;;;;5032551;28;20299;-73
2021/09/09 04:19:50;;;;;;;9.30;2.38;;;13.80;99.90;;;;;;5052074;28;20201;-74
2021/09/09 04:22:15;;;;;;;2.00;1.60;;;13.80;99.90;;;;;;5033913;28;20209;-72
2021/09/09 04:24:41;;;;;;;3.20;1.63;;;13.90;99.90;;;;;;5050272;28;20209;-74
2021/09/09 04:27:07;;;;;;;2.38;1.75;;;13.90;99.90;;;;;;5034051;28;20729;-74
2021/09/09 04:29:33;;;;;;;0.95;0.93;;;13.90;99.90;;;;;;5033666;28;20340;-73
2021/09/09 04:31:58;;;;;;;1.10;1.10;;;13.90;99.90;;;;;;5032413;28;20542;-73
2021/09/09 04:34:24;;;;;;;1.00;1.00;;;13.90;99.90;;;;;;5051575;28;20197;-73
2021/09/09 04:36:50;;;;;;;3.95;2.28;;;13.90;99.90;;;;;;5051602;28;20208;-74
2021/09/09 04:39:15;;;;;;;1.25;1.15;;;13.90;99.90;;;;;;5051717;28;20636;-74
2021/09/09 04:41:41;;;;;;;1.45;1.23;;;13.90;99.90;;;;;;5033520;28;20214;-74
2021/09/09 04:44:07;;;;;;;2.47;1.63;;;13.90;99.90;;;;;;5032492;28;20201;-74
2021/09/09 04:46:33;;;;;;;0.90;0.90;;;13.90;99.90;;;;;;5049909;28;20275;-74
2021/09/09 04:48:59;;;;;;;0.75;0.75;;;13.90;99.90;;;;;;5049822;28;20266;-74
2021/09/09 04:51:24;;;;;;;0.85;0.85;;;14.00;99.90;;;;;;5050188;28;20566;-74
2021/09/09 04:53:51;;;;;;;2.78;1.92;;;13.90;99.90;;;;;;5050637;28;20212;-73
2021/09/09 04:56:17;;;;;;;1.08;0.98;;;13.90;99.90;;;;;;5051970;28;20201;-73
2021/09/09 04:58:42;;;;;;;1.02;1.02;;;14.00;99.90;;;;;;5033530;28;20208;-73
2021/09/09 05:01:08;;;;;;;1.02;1.02;;;14.00;99.90;;;;;;5051134;28;20667;-73
2021/09/09 05:03:34;;;;;;;3.55;1.13;;;14.00;99.90;;;;;;5051434;28;20227;-74
2021/09/09 05:06:00;;;;;;;1.52;1.25;;;14.00;99.90;;;;;;5050626;28;20271;-73
2021/09/09 05:08:25;;;;;;;0.88;0.88;;;14.00;99.90;;;;;;5050306;28;20212;-73
2021/09/09 05:10:51;;;;;;;3.03;1.98;;;14.00;99.90;;;;;;5051384;28;20201;-73
2021/09/09 05:13:17;;;;;;;1.30;1.25;;;14.10;99.90;;;;;;5050236;28;20205;-74
2021/09/09 05:15:43;;;;;;;5.00;2.75;;;14.10;99.90;;;;;;5049789;28;20206;-73
2021/09/09 05:18:09;;;;;;;1.75;1.65;;;14.10;99.90;;;;;;5033385;28;20286;-73
2021/09/09 05:20:34;;;;;;;0.77;0.77;;;14.10;99.90;;;;;;5049971;28;20570;-74
2021/09/09 05:23:00;;;;;;;0.73;0.73;;;14.10;99.90;;;;;;5051259;28;20205;-73
2021/09/09 05:25:26;;;;;;;1.77;1.48;;;14.20;99.90;;;;;;5049760;28;20263;-73
2021/09/09 05:27:52;;;;;;;1.98;1.23;;;14.20;99.90;;;;;;5031794;28;20255;-73
2021/09/09 05:30:18;;;;;;;1.17;1.17;;;14.20;99.90;;;;;;5036362;28;20204;-73
2021/09/09 05:32:43;;;;;;;0.70;0.70;;;14.20;99.90;;;;;;5036763;28;20676;-73
2021/09/09 05:35:09;;;;;;;4.85;1.30;;;14.20;99.90;;;;;;5053528;28;20209;-73
2021/09/09 05:37:35;;;;;;;1.58;1.48;;;14.30;99.90;;;;;;5055091;28;20231;-73
2021/09/09 05:40:02;;;;;;;3.13;1.95;;;14.30;99.90;;;;;;5033663;28;20724;-73
2021/09/09 05:42:28;;;;;;;0.70;0.70;;;14.30;99.90;;;;;;5034887;28;20660;-73
2021/09/09 05:44:54;;;;;;;1.33;1.23;;;14.30;99.90;;;;;;5034977;28;20252;-73
2021/09/09 05:47:20;;;;;;;1.95;1.48;;;14.30;99.90;;;;;;5033515;28;20317;-73
2021/09/09 05:49:46;;;;;;;4.00;2.22;;;14.30;99.90;;;;;;5033586;28;20213;-73
2021/09/09 05:52:12;;;;;;;1.52;1.42;;;14.30;99.90;;;;;;5033420;28;20292;-73
2021/09/09 05:54:38;;;;;;;1.63;1.25;;;14.30;99.90;;;;;;5033250;28;20683;-73
2021/09/09 05:57:04;;;;;;;1.10;1.10;;;14.40;99.90;;;;;;5072541;22;20236;-82
2021/09/09 05:59:29;;;;;;;1.05;1.05;;;14.40;99.90;;;;;;5075022;28;20265;-82
2021/09/09 06:01:56;;;;;;;1.20;1.10;;;14.40;99.90;;;;;;5077474;28;20204;-82
2021/09/09 06:04:22;;;;;;;0.80;0.80;;;14.40;99.90;;;;;;5077222;28;20197;-82
2021/09/09 06:06:48;;;;;;;0.75;0.75;;;14.40;99.90;;;;;;5076517;28;20207;-82
2021/09/09 06:09:14;;;;;;;2.00;1.83;;;14.50;99.90;;;;;;5076324;28;20577;-83
2021/09/09 06:11:40;;;;;;;0.88;0.85;;;14.50;99.90;;;;;;5094303;28;20204;-83
2021/09/09 06:14:06;;;;;;;4.63;1.95;;;14.50;99.90;;;;;;5093183;28;20722;-82
2021/09/09 06:16:32;;;;;;;1.63;1.00;;;14.50;99.90;;;;;;5092882;28;20218;-82
2021/09/09 06:18:58;;;;;;;1.58;1.33;;;14.50;99.90;;;;;;5074810;28;20590;-82
2021/09/09 06:21:24;;;;;;;1.25;1.15;;;14.50;99.90;;;;;;5074835;28;20210;-83
2021/09/09 06:23:50;;;;;;;1.35;1.25;;;14.50;99.90;;;;;;5092870;28;20203;-82
2021/09/09 06:26:17;;;;;;;0.57;0.57;;;14.50;99.90;;;;;;5075956;28;20207;-83
2021/09/09 06:28:43;;;;;;;2.30;1.63;;;14.50;99.90;;;;;;5075809;28;20816;-83
2021/09/09 06:31:09;;;;;;;1.50;1.15;;;14.50;99.90;;;;;;5074588;28;20192;-82
2021/09/09 06:33:35;;;;;;;1.30;1.25;;;14.50;99.90;;;;;;5074491;28;20196;-82
2021/09/09 06:36:00;;;;;;;2.13;1.58;;;14.60;99.90;;;;;;5075762;28;20287;-84
2021/09/09 06:38:26;;;;;;;1.67;1.58;;;14.60;99.90;;;;;;5075433;28;20301;-82
2021/09/09 06:40:52;;;;;;;2.67;1.88;;;14.60;99.90;;;;;;5075395;28;20294;-83
2021/09/09 06:43:18;;;;;;;1.95;1.80;;;14.60;99.90;;;;;;5075490;28;20208;-82
2021/09/09 06:45:44;;;;;;;1.70;1.38;;;14.60;99.90;;;;;;5075104;28;20287;-82
2021/09/09 06:48:10;;;;;;;1.40;1.30;;;14.70;99.90;;;;;;5074096;28;20204;-82
2021/09/09 06:50:36;;;;;;;2.88;1.30;;;14.60;99.90;;;;;;5093397;28;20723;-82
2021/09/09 06:53:02;;;;;;;2.53;1.50;;;14.70;99.90;;;;;;5076656;28;20200;-82
2021/09/09 06:55:27;;;;;;;1.13;1.13;;;14.70;99.90;;;;;;5075192;28;20345;-83
2021/09/09 06:57:53;;;;;;;0.60;0.60;;;14.70;99.90;;;;;;5055972;28;20229;-82
2021/09/09 07:00:19;;;;;;;1.13;1.08;;;14.70;99.90;;;;;;5051907;28;20740;-83
2021/09/09 07:02:45;;;;;;;9.55;1.38;;;14.80;99.90;;;;;;5051744;28;20205;-82
2021/09/09 07:05:11;;;;;;;2.15;1.75;;;14.80;99.90;;;;;;5051984;28;20205;-82
2021/09/09 07:07:40;;;;;;;3.58;1.60;;;14.80;99.90;;;;;;5050274;28;20316;-80
2021/09/09 07:10:07;;;;;;;2.65;1.70;;;14.90;99.90;;;;;;5051622;28;20294;-82
2021/09/09 07:12:33;;;;;;;12.13;2.65;;;14.90;99.90;;;;;;5051867;28;20212;-80
2021/09/09 07:14:59;;;;;;;1.00;0.98;;;15.00;99.90;;;;;;5051777;28;20612;-81
2021/09/09 07:17:25;;;;;;;2.08;1.58;;;15.10;99.90;;;;;;5051696;28;20551;-83
2021/09/09 07:19:51;;;;;;;1.42;1.33;;;15.10;99.90;;;;;;5052715;28;20213;-82
2021/09/09 07:22:17;;;;;;;1.17;1.15;;;15.20;99.90;;;;;;5051907;28;20683;-82
2021/09/09 07:24:42;;;;;;;2.72;2.47;;;15.30;99.90;;;;;;5051539;28;20216;-83
2021/09/09 07:27:08;;;;;;;1.63;1.52;;;15.20;99.90;;;;;;5050377;28;20216;-82
2021/09/09 07:29:34;;;;;;;6.28;1.45;;;15.30;99.90;;;;;;5049888;28;20197;-83
2021/09/09 07:32:00;;;;;;;1.95;1.40;;;15.30;99.90;;;;;;5051243;28;20197;-83
2021/09/09 07:34:26;;;;;;;2.42;1.65;;;15.30;99.90;;;;;;5051463;28;20230;-83
2021/09/09 07:36:52;;;;;;;2.38;1.20;;;15.20;99.90;;;;;;5051193;28;20209;-84
2021/09/09 07:39:19;;;;;;;1.50;1.25;;;15.30;99.90;;;;;;5049864;28;20206;-84
2021/09/09 07:41:45;;;;;;;0.80;0.80;;;15.30;99.90;;;;;;5052506;28;20216;-83
2021/09/09 07:44:11;;;;;;;1.02;1.02;;;15.40;99.90;;;;;;5051124;28;20216;-83
2021/09/09 07:46:37;;;;;;;0.50;0.50;;;15.30;99.90;;;;;;5040617;28;20685;-82
2021/09/09 07:49:03;;;;;;;0.82;0.82;;;15.40;99.90;;;;;;5045243;28;20706;-82
2021/09/09 07:51:29;;;;;;;1.33;1.17;;;15.30;99.90;;;;;;5050294;28;20644;-83
2021/09/09 07:53:55;;;;;;;1.10;1.02;;;15.30;99.90;;;;;;5049655;28;20208;-83
2021/09/09 07:56:22;;;;;;;6.95;1.77;;;15.30;99.90;;;;;;5055475;28;20619;-83
2021/09/09 07:58:50;;;;;;;2.72;1.92;;;15.30;99.90;;;;;;5075212;28;20216;-83
2021/09/09 08:01:18;;;;;;;2.72;1.92;;;15.30;99.90;;;;;;5073807;28;20204;-83
2021/09/09 08:03:45;;;;;;;1.27;1.17;;;15.20;99.90;;;;;;5075036;28;20212;-83
2021/09/09 08:06:11;;;;;;;0.55;0.55;;;15.30;99.90;;;;;;5074879;28;20227;-83
2021/09/09 08:08:37;;;;;;;2.58;1.85;;;15.30;99.90;;;;;;5073924;28;20689;-83
2021/09/09 08:11:03;;;;;;;1.20;1.10;;;15.30;99.90;;;;;;5073358;28;20222;-84
2021/09/09 08:13:28;;;;;;;0.80;0.80;;;15.30;99.90;;;;;;5072327;28;20196;-84
2021/09/09 08:15:54;;;;;;;1.27;1.13;;;15.30;99.90;;;;;;5072556;28;24522;-83
2021/09/09 08:18:20;;;;;;;1.23;1.15;;;15.30;99.90;;;;;;5073781;28;20192;-83
2021/09/09 08:20:46;;;;;;;0.68;0.68;;;15.30;99.90;;;;;;5074497;28;20287;-83
2021/09/09 08:23:12;;;;;;;0.50;0.50;;;15.30;99.90;;;;;;5074409;28;20231;-83
2021/09/09 08:25:37;;;;;;;1.85;0.85;;;15.30;99.90;;;;;;5075520;28;20691;-83
2021/09/09 08:28:03;;;;;;;1.58;1.48;;;15.30;99.90;;;;;;5091928;28;20246;-83
2021/09/09 08:30:29;;;;;;;1.80;1.50;;;15.40;99.90;;;;;;5090426;28;20272;-83
2021/09/09 08:32:55;;;;;;;1.20;1.13;;;15.40;99.90;;;;;;5073830;28;20232;-83
2021/09/09 08:35:20;;;;;;;1.33;1.10;;;15.40;99.90;;;;;;5071766;28;20204;-84
2021/09/09 08:37:46;;;;;;;3.28;0.98;;;15.50;99.90;;;;;;5073378;28;20204;-83
2021/09/09 08:40:13;;;;;;;3.92;0.98;;;15.60;99.90;;;;;;5073315;28;20237;-83
2021/09/09 08:42:43;;;;;;;0.93;0.82;;;15.60;99.90;;;;;;5074581;28;20742;-83
2021/09/09 08:45:11;;;;;;;2.13;1.38;;;15.70;99.90;;;;;;5091103;28;20346;-83
2021/09/09 08:47:39;;;;;;;1.27;1.15;;;15.70;99.90;;;;;;5071987;28;20203;-83
2021/09/09 08:50:06;;;;;;;0.98;0.98;;;15.70;99.90;;;;;;5073812;28;20597;-81
2021/09/09 08:52:32;;;;;;;0.85;0.85;;;15.60;99.90;;;;;;5073327;28;20271;-82
2021/09/09 08:54:58;;;;;;;2.40;1.67;;;15.70;99.90;;;;;;5073508;28;20211;-84
2021/09/09 08:57:23;;;;;;;3.47;1.20;;;15.70;99.90;;;;;;5056687;28;20225;-84
2021/09/09 08:59:49;;;;;;;2.05;1.48;;;15.80;99.90;;;;;;5052488;28;20224;-83
2021/09/09 09:02:17;;;;;;;1.25;1.15;;;15.80;99.90;;;;;;5048580;28;20216;-81
2021/09/09 09:05:02;;;;;;;1.95;0.98;;;15.90;99.90;;;;;;5052300;28;20627;-83
2021/09/09 09:07:32;;;;;;;0.82;0.82;;;16.00;99.90;;;;;;5053067;28;20208;-84
2021/09/09 09:10:00;;;;;;;0.50;0.50;;;16.10;99.90;;;;;;5053998;28;20759;-82
2021/09/09 09:12:40;;;;;;;1.85;1.25;;;16.10;99.90;;;;;;5057293;28;20205;-83
2021/09/09 09:15:18;;;;;;;1.02;0.98;;;16.20;99.90;;;;;;5053955;28;20718;-83
2021/09/09 09:18:06;;;;;;;1.08;0.95;;;16.20;99.90;;;;;;5055626;28;20205;-83
2021/09/09 09:20:42;;;;;;;2.67;1.45;;;16.20;99.90;;;;;;5053973;28;20213;-83
2021/09/09 09:23:15;;;;;;;1.95;1.15;;;16.30;99.90;;;;;;5054139;28;20232;-83
2021/09/09 09:25:45;;;;;;;1.33;1.23;;;16.30;99.90;;;;;;5052392;28;20205;-83
2021/09/09 09:28:11;;;;;;;0.73;0.73;;;16.40;99.90;;;;;;5055402;28;20227;-83
2021/09/09 09:30:36;;;;;;;0.65;0.65;;;16.40;99.90;;;;;;5052359;28;20198;-83
2021/09/09 09:33:02;;;;;;;5.00;1.52;;;16.50;99.90;;;;;;5054196;28;20684;-83
2021/09/09 09:35:30;;;;;;;4.97;1.65;;;16.50;99.90;;;;;;5053430;28;20205;-83
2021/09/09 09:38:05;;;;;;;1.40;1.27;;;16.50;99.90;;;;;;5053585;28;20619;-83
2021/09/09 09:40:41;;;;;;;0.60;0.60;;;16.60;99.90;;;;;;5051958;28;20209;-83
2021/09/09 09:43:09;;;;;;;0.90;0.90;;;16.70;99.90;;;;;;5052502;28;20484;-83
2021/09/09 09:45:36;;;;;;;0.73;0.73;;;16.70;99.90;;;;;;5053390;28;20275;-84
2021/09/09 09:48:03;;;;;;;0.82;0.70;;;16.80;99.90;;;;;;5054811;28;20201;-84
2021/09/09 09:50:40;;;;;;;1.25;1.15;;;16.80;99.90;;;;;;5051741;28;20202;-84
2021/09/09 09:53:16;;;;;;;3.40;1.05;;;16.90;99.90;;;;;;5053205;28;20269;-83
2021/09/09 09:55:42;;;;;;;0.70;0.65;;;16.90;99.90;;;;;;5069790;28;20209;-83
2021/09/09 09:58:08;;;;;;;0.60;0.60;;;17.10;99.90;;;;;;5069729;28;20366;-83
2021/09/09 10:00:35;;;;;;;0.77;0.75;;;17.10;99.90;;;;;;5053201;28;20297;-83
2021/09/09 10:03:01;;;;;;;1.13;0.93;;;17.20;99.90;;;;;;5070899;28;20274;-83
2021/09/09 10:05:29;;;;;;;0.70;0.70;;;17.20;99.90;;;;;;5068840;28;20209;-83
2021/09/09 10:07:54;;;;;;;0.60;0.60;;;17.10;99.90;;;;;;5070216;28;20683;-82
2021/09/09 10:10:23;;;;;;;6.45;1.05;;;17.10;99.90;;;;;;5053469;28;20202;-83
2021/09/09 10:12:50;;;;;;;1.15;0.93;;;17.20;99.90;;;;;;5070550;28;20619;-82
2021/09/09 10:15:19;;;;;;;0.60;0.60;;;17.20;99.90;;;;;;5082621;28;20344;-84
2021/09/09 10:17:44;;;;;;;1.20;0.82;;;17.20;99.90;;;;;;5052771;28;20237;-83
2021/09/09 10:20:36;;;;;;;1.92;0.70;;;17.20;99.90;;;;;;5066419;28;20243;-82
2021/09/09 10:23:17;;;;;;;1.48;1.38;;;17.40;99.90;;;;;;5069342;28;20216;-83
2021/09/09 10:25:54;;;;;;;2.63;1.38;;;17.50;99.90;;;;;;5068302;28;20201;-83
2021/09/09 10:28:48;;;;;;;1.02;0.93;;;17.80;99.90;;;;;;5069919;28;20204;-83
2021/09/09 10:31:15;;;;;;;4.88;1.30;;;18.00;99.90;;;;;;5036154;28;20232;-81
2021/09/09 10:33:47;;;;;;;0.90;0.90;;;18.10;99.90;;;;;;5035165;28;20564;-87
2021/09/09 10:36:46;;;;;;;1.95;1.30;;;18.20;99.90;;;;;;5070629;28;20303;-82
2021/09/09 10:39:17;;;;;;;1.50;0.90;;;18.40;99.90;;;;;;5039717;28;20198;-82
2021/09/09 10:41:43;;;;;;;4.60;1.15;;;18.50;99.90;;;;;;5054200;28;20636;-82
2021/09/09 10:44:10;;;;;;;0.60;0.60;;;18.50;99.90;;;;;;5068884;28;20205;-82
2021/09/09 10:46:41;;;;;;;0.82;0.82;;;18.60;99.90;;;;;;5069468;28;20201;-82
2021/09/09 10:49:10;;;;;;;0.60;0.60;;;18.70;99.90;;;;;;5036838;28;20233;-82
2021/09/09 10:51:36;;;;;;;1.15;1.05;;;18.60;99.90;;;;;;5069705;28;20193;-83
2021/09/09 10:54:03;;;;;;;0.70;0.70;;;18.70;99.90;;;;;;5086843;28;20235;-82
2021/09/09 10:56:36;;;;;;;2.25;1.33;;;18.80;99.90;;;;;;5069306;28;20252;-88
2021/09/09 10:59:18;;;;;;;0.85;0.85;;;18.90;99.90;;;;;;5069696;28;20284;-83
2021/09/09 11:01:45;;;;;;;6.03;1.25;;;19.00;99.90;;;;;;5069428;28;20231;-82
2021/09/09 11:04:28;;;;;;;0.90;0.90;;;19.50;99.90;;;;;;5069601;28;20204;-85
2021/09/09 11:06:57;;;;;;;0.65;0.63;;;19.80;99.90;;;;;;5069683;28;20212;-83
2021/09/09 11:09:24;;;;;;;0.70;0.70;;;19.90;99.90;;;;;;5070199;28;20672;-83
2021/09/09 11:11:59;;;;;;;2.10;0.93;;;19.80;99.90;;;;;;5068171;28;20246;-82
2021/09/09 11:14:25;;;;;;;1.52;0.88;;;20.10;99.90;;;;;;5068657;28;20228;-83
2021/09/09 11:16:51;;;;;;;1.60;0.73;;;20.10;99.90;;;;;;5050702;28;20252;-83
2021/09/09 11:19:21;;;;;;;1.08;0.98;;;20.20;99.90;;;;;;5066671;28;20619;-83
2021/09/09 11:21:47;;;;;;;1.55;0.63;;;20.40;99.90;;;;;;5066969;28;20598;-82
2021/09/09 11:24:14;;;;;;;12.10;1.13;;;20.50;99.90;;;;;;5069085;28;20216;-82
2021/09/09 11:26:42;;;;;;;0.52;0.52;;;20.50;99.90;;;;;;5065583;28;20232;-82
2021/09/09 11:29:08;;;;;;;0.40;0.40;;;20.10;99.90;;;;;;5065929;28;20670;-83
2021/09/09 11:31:47;;;;;;;1.45;0.93;;;20.00;99.90;;;;;;5068757;28;20205;-83
2021/09/09 11:34:14;;;;;;;0.85;0.60;;;19.80;99.90;;;;;;5066563;28;20207;-83
2021/09/09 11:36:43;;;;;;;1.30;0.70;;;19.60;99.90;;;;;;5066459;28;20228;-83
2021/09/09 11:39:11;;;;;;;1.98;0.65;;;19.90;99.90;;;;;;5066042;28;20299;-82
2021/09/09 11:41:39;;;;;;;0.55;0.55;;;20.10;99.90;;;;;;5068724;28;20201;-83
2021/09/09 11:44:07;;;;;;;0.57;0.57;;;20.20;99.90;;;;;;5066591;28;20204;-83
2021/09/09 11:46:38;;;;;;;1.45;0.82;;;20.10;99.90;;;;;;5067443;28;20208;-82
2021/09/09 11:49:09;;;;;;;1.95;1.15;;;20.20;99.90;;;;;;5059085;28;20197;-82
2021/09/09 11:51:38;;;;;;;0.55;0.55;;;20.50;99.90;;;;;;5057145;28;20200;-83
2021/09/09 11:54:21;;;;;;;0.90;0.90;;;20.70;99.90;;;;;;5066372;28;20658;-82
2021/09/09 11:56:49;;;;;;;0.50;0.50;;;20.80;99.90;;;;;;5066381;28;20229;-82
2021/09/09 11:59:19;;;;;;;1.92;1.15;;;20.90;99.90;;;;;;5069617;28;20286;-82
2021/09/09 12:01:49;;;;;;;0.63;0.63;;;21.00;99.90;;;;;;5070471;28;20295;-82
2021/09/09 12:04:16;;;;;;;1.65;1.23;;;21.00;99.90;;;;;;5070771;28;20569;-83
2021/09/09 12:06:43;;;;;;;5.05;0.95;;;21.20;99.90;;;;;;5070181;28;20208;-83
2021/09/09 12:09:09;;;;;;;1.05;0.70;;;21.40;99.90;;;;;;5070520;28;20215;-82
2021/09/09 12:11:35;;;;;;;1.02;0.65;;;21.20;99.90;;;;;;5070736;28;20222;-83
2021/09/09 12:14:18;;;;;;;0.98;0.75;;;21.40;99.90;;;;;;5070556;28;20571;-83
2021/09/09 12:16:44;;;;;;;0.30;0.30;;;21.90;99.90;;;;;;5069381;28;20307;-82
2021/09/09 12:19:11;;;;;;;1.17;0.65;;;22.10;99.90;;;;;;5070763;28;20225;-82
2021/09/09 12:21:52;;;;;;;0.93;0.70;;;22.00;99.90;;;;;;5070150;28;20196;-82
2021/09/09 12:24:20;;;;;;;3.03;1.02;;;22.40;99.90;;;;;;5070450;28;20219;-83
2021/09/09 12:27:00;;;;;;;0.60;0.60;;;22.60;99.90;;;;;;5069091;28;20205;-83
2021/09/09 12:29:36;;;;;;;0.40;0.40;;;22.60;99.90;;;;;;5071439;28;20207;-83
2021/09/09 12:32:19;;;;;;;0.65;0.65;;;22.70;99.90;;;;;;5070948;28;20555;-82
2021/09/09 12:34:45;;;;;;;0.50;0.50;;;22.80;99.90;;;;;;5070256;28;20639;-83
2021/09/09 12:37:15;;;;;;;0.65;0.65;;;22.80;99.90;;;;;;5070302;28;20201;-82
2021/09/09 12:39:45;;;;;;;0.95;0.88;;;22.80;99.90;;;;;;5069784;28;20196;-83
2021/09/09 12:42:11;;;;;;;1.17;1.02;;;22.90;99.90;;;;;;5071457;28;20246;-82
2021/09/09 12:44:37;;;;;;;5.28;0.77;;;22.70;99.90;;;;;;5071389;28;20201;-82
2021/09/09 12:47:16;;;;;;;0.45;0.43;;;22.60;99.90;;;;;;5073046;28;20255;-83
2021/09/09 12:49:42;;;;;;;1.02;0.80;;;22.30;99.90;;;;;;5070472;28;20205;-82